sensor_id;sensor_type;location;lat;lon;timestamp;temperature;humidity
29575;DHT22;16507;51.046;6.406;2022-12-11T00:00:05;0.30;99.90
29575;DHT22;16507;51.046;6.406;2022-12-11T00:02:31;-0.30;99.90
29575;DHT22;16507;51.046;6.406;2022-12-11T00:04:56;0.20;99.90
29575;DHT22;16507;51.046;6.406;2022-12-11T00:07:22;-0.20;99.90
29575;DHT22;16507;51.046;6.406;2022-12-11T00:09:47;0.30;99.90
29575;DHT22;16507;51.046;6.406;2022-12-11T00:12:13;0.00;99.90
29575;DHT22;16507;51.046;6.406;2022-12-11T00:14:39;-0.20;99.90
29575;DHT22;16507;51.046;6.406;2022-12-11T00:17:04;0.30;99.90
29575;DHT22;16507;51.046;6.406;2022-12-11T00:19:30;0.00;99.90
29575;DHT22;16507;51.046;6.406;2022-12-11T00:21:56;0.30;99.90
29575;DHT22;16507;51.046;6.406;2022-12-11T00:24:21;0.20;99.90
29575;DHT22;16507;51.046;6.406;2022-12-11T00:26:47;0.10;99.90
29575;DHT22;16507;51.046;6.406;2022-12-11T00:29:12;0.10;99.90
29575;DHT22;16507;51.046;6.406;2022-12-11T00:31:40;0.10;99.90
29575;DHT22;16507;51.046;6.406;2022-12-11T00:34:06;-0.20;99.90
29575;DHT22;16507;51.046;6.406;2022-12-11T00:36:32;-0.20;99.90
29575;DHT22;16507;51.046;6.406;2022-12-11T00:38:58;0.30;99.90
29575;DHT22;16507;51.046;6.406;2022-12-11T00:41:23;0.30;99.90
29575;DHT22;16507;51.046;6.406;2022-12-11T00:43:49;-0.20;99.90
29575;DHT22;16507;51.046;6.406;2022-12-11T00:46:15;0.00;99.90
29575;DHT22;16507;51.046;6.406;2022-12-11T00:48:41;0.40;99.90
29575;DHT22;16507;51.046;6.406;2022-12-11T00:51:07;0.30;99.90
29575;DHT22;16507;51.046;6.406;2022-12-11T00:53:32;0.40;99.90
29575;DHT22;16507;51.046;6.406;2022-12-11T00:55:58;0.40;99.90
29575;DHT22;16507;51.046;6.406;2022-12-11T00:58:24;0.20;99.90
29575;DHT22;16507;51.046;6.406;2022-12-11T01:00:49;0.00;99.90
29575;DHT22;16507;51.046;6.406;2022-12-11T01:03:16;0.50;99.90
29575;DHT22;16507;51.046;6.406;2022-12-11T01:05:50;0.30;99.90
29575;DHT22;16507;51.046;6.406;2022-12-11T01:08:16;0.50;99.90
29575;DHT22;16507;51.046;6.406;2022-12-11T01:10:42;-0.10;99.90
29575;DHT22;16507;51.046;6.406;2022-12-11T01:13:08;0.00;99.90
29575;DHT22;16507;51.046;6.406;2022-12-11T01:15:39;0.00;99.90
29575;DHT22;16507;51.046;6.406;2022-12-11T01:18:05;0.10;99.90
29575;DHT22;16507;51.046;6.406;2022-12-11T01:20:31;0.60;99.90
29575;DHT22;16507;51.046;6.406;2022-12-11T01:22:58;0.00;99.90
29575;DHT22;16507;51.046;6.406;2022-12-11T01:25:26;0.00;99.90
29575;DHT22;16507;51.046;6.406;2022-12-11T01:27:53;0.40;99.90
29575;DHT22;16507;51.046;6.406;2022-12-11T01:30:21;0.10;99.90
29575;DHT22;16507;51.046;6.406;2022-12-11T01:32:47;0.40;99.90
29575;DHT22;16507;51.046;6.406;2022-12-11T01:35:13;0.40;99.90
29575;DHT22;16507;51.046;6.406;2022-12-11T01:37:39;0.00;99.90
29575;DHT22;16507;51.046;6.406;2022-12-11T01:40:06;0.00;99.90
29575;DHT22;16507;51.046;6.406;2022-12-11T01:42:33;0.00;99.90
29575;DHT22;16507;51.046;6.406;2022-12-11T01:47:50;0.00;99.90
29575;DHT22;16507;51.046;6.406;2022-12-11T01:50:18;0.50;99.90
29575;DHT22;16507;51.046;6.406;2022-12-11T01:52:46;-0.10;99.90
29575;DHT22;16507;51.046;6.406;2022-12-11T01:55:13;0.40;99.90
29575;DHT22;16507;51.046;6.406;2022-12-11T01:57:41;0.00;99.90
29575;DHT22;16507;51.046;6.406;2022-12-11T02:00:08;-0.20;99.90
29575;DHT22;16507;51.046;6.406;2022-12-11T02:02:34;0.20;99.90
29575;DHT22;16507;51.046;6.406;2022-12-11T02:05:04;-0.30;99.90
29575;DHT22;16507;51.046;6.406;2022-12-11T02:08:06;0.00;99.90
29575;DHT22;16507;51.046;6.406;2022-12-11T02:10:54;-0.30;99.90
29575;DHT22;16507;51.046;6.406;2022-12-11T02:14:04;0.30;99.90
29575;DHT22;16507;51.046;6.406;2022-12-11T02:16:19;0.20;99.90
29575;DHT22;16507;51.046;6.406;2022-12-11T02:21:58;-0.40;99.90
29575;DHT22;16507;51.046;6.406;2022-12-11T02:32:36;0.10;99.90
29575;DHT22;16507;51.046;6.406;2022-12-11T02:35:09;0.00;99.90
29575;DHT22;16507;51.046;6.406;2022-12-11T02:37:39;-0.40;99.90
29575;DHT22;16507;51.046;6.406;2022-12-11T02:40:08;-0.10;99.90
29575;DHT22;16507;51.046;6.406;2022-12-11T02:42:37;-0.40;99.90
29575;DHT22;16507;51.046;6.406;2022-12-11T02:45:04;-0.30;99.90
29575;DHT22;16507;51.046;6.406;2022-12-11T02:47:32;0.20;99.90
29575;DHT22;16507;51.046;6.406;2022-12-11T02:50:00;-0.20;99.90
29575;DHT22;16507;51.046;6.406;2022-12-11T02:52:27;0.10;99.90
29575;DHT22;16507;51.046;6.406;2022-12-11T02:54:56;0.00;99.90
29575;DHT22;16507;51.046;6.406;2022-12-11T02:57:35;-0.20;99.90
29575;DHT22;16507;51.046;6.406;2022-12-11T03:00:03;0.20;99.90
29575;DHT22;16507;51.046;6.406;2022-12-11T03:02:29;-0.40;99.90
29575;DHT22;16507;51.046;6.406;2022-12-11T03:04:55;0.10;99.90
29575;DHT22;16507;51.046;6.406;2022-12-11T03:07:27;0.10;99.90
29575;DHT22;16507;51.046;6.406;2022-12-11T03:09:56;0.10;99.90
29575;DHT22;16507;51.046;6.406;2022-12-11T03:12:28;-0.40;99.90
29575;DHT22;16507;51.046;6.406;2022-12-11T03:14:56;-0.40;99.90
29575;DHT22;16507;51.046;6.406;2022-12-11T03:17:26;0.00;99.90
29575;DHT22;16507;51.046;6.406;2022-12-11T03:22:53;0.10;99.90
29575;DHT22;16507;51.046;6.406;2022-12-11T03:25:28;-0.10;99.90
29575;DHT22;16507;51.046;6.406;2022-12-11T03:28:11;0.20;99.90
29575;DHT22;16507;51.046;6.406;2022-12-11T03:30:39;0.10;99.90
29575;DHT22;16507;51.046;6.406;2022-12-11T03:33:28;0.10;99.90
29575;DHT22;16507;51.046;6.406;2022-12-11T03:36:00;-0.20;99.90
29575;DHT22;16507;51.046;6.406;2022-12-11T03:38:36;-0.30;99.90
29575;DHT22;16507;51.046;6.406;2022-12-11T03:41:06;0.00;99.90
29575;DHT22;16507;51.046;6.406;2022-12-11T03:43:33;0.10;99.90
29575;DHT22;16507;51.046;6.406;2022-12-11T03:45:59;0.00;99.90
29575;DHT22;16507;51.046;6.406;2022-12-11T03:48:30;-0.30;99.90
29575;DHT22;16507;51.046;6.406;2022-12-11T03:50:58;0.10;99.90
29575;DHT22;16507;51.046;6.406;2022-12-11T03:53:25;0.00;99.90
29575;DHT22;16507;51.046;6.406;2022-12-11T03:55:53;-0.20;99.90
29575;DHT22;16507;51.046;6.406;2022-12-11T03:58:20;-0.10;99.90
29575;DHT22;16507;51.046;6.406;2022-12-11T04:00:46;0.00;99.90
29575;DHT22;16507;51.046;6.406;2022-12-11T04:03:11;0.10;99.90
29575;DHT22;16507;51.046;6.406;2022-12-11T04:05:37;-0.20;99.90
29575;DHT22;16507;51.046;6.406;2022-12-11T04:08:03;0.10;99.90
29575;DHT22;16507;51.046;6.406;2022-12-11T04:10:29;-0.10;99.90
29575;DHT22;16507;51.046;6.406;2022-12-11T04:12:54;0.00;99.90
29575;DHT22;16507;51.046;6.406;2022-12-11T04:15:20;-0.20;99.90
29575;DHT22;16507;51.046;6.406;2022-12-11T04:17:46;-0.20;99.90
29575;DHT22;16507;51.046;6.406;2022-12-11T04:20:30;0.00;99.90
29575;DHT22;16507;51.046;6.406;2022-12-11T04:23:17;0.20;99.90
29575;DHT22;16507;51.046;6.406;2022-12-11T04:28:30;-0.20;99.90
29575;DHT22;16507;51.046;6.406;2022-12-11T04:30:56;0.10;99.90
29575;DHT22;16507;51.046;6.406;2022-12-11T04:33:21;0.20;99.90
29575;DHT22;16507;51.046;6.406;2022-12-11T04:35:47;0.20;99.90
29575;DHT22;16507;51.046;6.406;2022-12-11T04:38:13;0.00;99.90
29575;DHT22;16507;51.046;6.406;2022-12-11T04:40:38;-0.10;99.90
29575;DHT22;16507;51.046;6.406;2022-12-11T04:43:04;-0.10;99.90
29575;DHT22;16507;51.046;6.406;2022-12-11T04:45:29;-0.20;99.90
29575;DHT22;16507;51.046;6.406;2022-12-11T04:47:55;-0.10;99.90
29575;DHT22;16507;51.046;6.406;2022-12-11T04:50:21;-0.20;99.90
29575;DHT22;16507;51.046;6.406;2022-12-11T04:52:46;0.20;99.90
29575;DHT22;16507;51.046;6.406;2022-12-11T04:55:12;0.20;99.90
29575;DHT22;16507;51.046;6.406;2022-12-11T04:57:38;0.20;99.90
29575;DHT22;16507;51.046;6.406;2022-12-11T05:00:07;-0.20;99.90
29575;DHT22;16507;51.046;6.406;2022-12-11T05:02:34;-0.20;99.90
29575;DHT22;16507;51.046;6.406;2022-12-11T05:05:01;0.20;99.90
29575;DHT22;16507;51.046;6.406;2022-12-11T05:07:27;-0.20;99.90
29575;DHT22;16507;51.046;6.406;2022-12-11T05:09:53;0.10;99.90
29575;DHT22;16507;51.046;6.406;2022-12-11T05:12:18;0.30;99.90
29575;DHT22;16507;51.046;6.406;2022-12-11T05:14:44;-0.10;99.90
29575;DHT22;16507;51.046;6.406;2022-12-11T05:17:10;0.20;99.90
29575;DHT22;16507;51.046;6.406;2022-12-11T05:19:35;0.10;99.90
29575;DHT22;16507;51.046;6.406;2022-12-11T05:22:01;-0.10;99.90
29575;DHT22;16507;51.046;6.406;2022-12-11T05:24:26;0.20;99.90
29575;DHT22;16507;51.046;6.406;2022-12-11T05:26:52;-0.20;99.90
29575;DHT22;16507;51.046;6.406;2022-12-11T05:29:18;-0.10;99.90
29575;DHT22;16507;51.046;6.406;2022-12-11T05:31:43;0.20;99.90
29575;DHT22;16507;51.046;6.406;2022-12-11T05:34:09;0.30;99.90
29575;DHT22;16507;51.046;6.406;2022-12-11T05:36:34;-0.10;99.90
29575;DHT22;16507;51.046;6.406;2022-12-11T05:39:00;0.20;99.90
29575;DHT22;16507;51.046;6.406;2022-12-11T05:41:28;0.00;99.90
29575;DHT22;16507;51.046;6.406;2022-12-11T05:43:54;0.00;99.90
29575;DHT22;16507;51.046;6.406;2022-12-11T05:46:23;0.00;99.90
29575;DHT22;16507;51.046;6.406;2022-12-11T05:48:53;0.10;99.90
29575;DHT22;16507;51.046;6.406;2022-12-11T05:51:19;0.10;99.90
29575;DHT22;16507;51.046;6.406;2022-12-11T05:53:46;-0.10;99.90
29575;DHT22;16507;51.046;6.406;2022-12-11T05:56:17;0.10;99.90
29575;DHT22;16507;51.046;6.406;2022-12-11T05:58:44;0.20;99.90
29575;DHT22;16507;51.046;6.406;2022-12-11T06:01:24;0.10;99.90
29575;DHT22;16507;51.046;6.406;2022-12-11T06:03:52;-0.10;99.90
29575;DHT22;16507;51.046;6.406;2022-12-11T06:06:18;0.30;99.90
29575;DHT22;16507;51.046;6.406;2022-12-11T06:08:44;0.20;99.90
29575;DHT22;16507;51.046;6.406;2022-12-11T06:11:13;0.20;99.90
29575;DHT22;16507;51.046;6.406;2022-12-11T06:13:39;0.00;99.90
29575;DHT22;16507;51.046;6.406;2022-12-11T06:16:06;0.20;99.90
29575;DHT22;16507;51.046;6.406;2022-12-11T06:18:38;0.00;99.90
29575;DHT22;16507;51.046;6.406;2022-12-11T06:21:19;0.00;99.90
29575;DHT22;16507;51.046;6.406;2022-12-11T06:23:46;0.10;99.90
29575;DHT22;16507;51.046;6.406;2022-12-11T06:26:12;0.20;99.90
29575;DHT22;16507;51.046;6.406;2022-12-11T06:28:38;-0.10;99.90
29575;DHT22;16507;51.046;6.406;2022-12-11T06:31:04;0.20;99.90
29575;DHT22;16507;51.046;6.406;2022-12-11T06:33:30;0.20;99.90
29575;DHT22;16507;51.046;6.406;2022-12-11T06:36:00;0.10;99.90
29575;DHT22;16507;51.046;6.406;2022-12-11T06:38:26;-0.10;99.90
29575;DHT22;16507;51.046;6.406;2022-12-11T06:40:56;0.10;99.90
29575;DHT22;16507;51.046;6.406;2022-12-11T06:43:22;0.00;99.90
29575;DHT22;16507;51.046;6.406;2022-12-11T06:45:48;-0.10;99.90
29575;DHT22;16507;51.046;6.406;2022-12-11T06:48:13;-0.10;99.90
29575;DHT22;16507;51.046;6.406;2022-12-11T06:50:39;-0.10;99.90
29575;DHT22;16507;51.046;6.406;2022-12-11T06:53:04;-0.10;99.90
29575;DHT22;16507;51.046;6.406;2022-12-11T06:55:34;-0.20;99.90
29575;DHT22;16507;51.046;6.406;2022-12-11T06:58:00;-0.30;99.90
29575;DHT22;16507;51.046;6.406;2022-12-11T07:00:26;-0.20;99.90
29575;DHT22;16507;51.046;6.406;2022-12-11T07:02:51;-0.10;99.90
29575;DHT22;16507;51.046;6.406;2022-12-11T07:05:17;-0.20;99.90
29575;DHT22;16507;51.046;6.406;2022-12-11T07:07:43;-0.30;99.90
29575;DHT22;16507;51.046;6.406;2022-12-11T07:10:09;-0.30;99.90
29575;DHT22;16507;51.046;6.406;2022-12-11T07:12:35;-0.10;99.90
29575;DHT22;16507;51.046;6.406;2022-12-11T07:15:00;-0.30;99.90
29575;DHT22;16507;51.046;6.406;2022-12-11T07:17:28;-0.30;99.90
29575;DHT22;16507;51.046;6.406;2022-12-11T07:19:54;-0.20;99.90
29575;DHT22;16507;51.046;6.406;2022-12-11T07:22:19;-0.10;99.90
29575;DHT22;16507;51.046;6.406;2022-12-11T07:24:45;-0.20;99.90
29575;DHT22;16507;51.046;6.406;2022-12-11T07:27:11;-0.20;99.90
29575;DHT22;16507;51.046;6.406;2022-12-11T07:29:36;0.00;99.90
29575;DHT22;16507;51.046;6.406;2022-12-11T07:32:02;-0.20;99.90
29575;DHT22;16507;51.046;6.406;2022-12-11T07:34:28;0.00;99.90
29575;DHT22;16507;51.046;6.406;2022-12-11T07:36:53;-0.20;99.90
29575;DHT22;16507;51.046;6.406;2022-12-11T07:39:19;0.00;99.90
29575;DHT22;16507;51.046;6.406;2022-12-11T07:41:45;-0.30;99.90
29575;DHT22;16507;51.046;6.406;2022-12-11T07:44:11;-0.30;99.90
29575;DHT22;16507;51.046;6.406;2022-12-11T07:46:38;-0.10;99.90
29575;DHT22;16507;51.046;6.406;2022-12-11T07:49:04;-0.10;99.90
29575;DHT22;16507;51.046;6.406;2022-12-11T07:51:32;-0.30;99.90
29575;DHT22;16507;51.046;6.406;2022-12-11T07:54:00;-0.30;99.90
29575;DHT22;16507;51.046;6.406;2022-12-11T07:56:27;-0.10;99.90
29575;DHT22;16507;51.046;6.406;2022-12-11T07:58:53;-0.20;99.90
29575;DHT22;16507;51.046;6.406;2022-12-11T08:01:23;-0.20;99.90
29575;DHT22;16507;51.046;6.406;2022-12-11T08:03:50;-0.30;99.90
29575;DHT22;16507;51.046;6.406;2022-12-11T08:06:18;-0.10;99.90
29575;DHT22;16507;51.046;6.406;2022-12-11T08:08:46;-0.10;99.90
29575;DHT22;16507;51.046;6.406;2022-12-11T08:11:13;-0.30;99.90
29575;DHT22;16507;51.046;6.406;2022-12-11T08:13:40;-0.30;99.90
29575;DHT22;16507;51.046;6.406;2022-12-11T08:16:07;-0.10;99.90
29575;DHT22;16507;51.046;6.406;2022-12-11T08:18:34;-0.10;99.90
29575;DHT22;16507;51.046;6.406;2022-12-11T08:21:08;-0.20;99.90
29575;DHT22;16507;51.046;6.406;2022-12-11T08:23:34;-0.10;99.90
29575;DHT22;16507;51.046;6.406;2022-12-11T08:26:05;-0.30;99.90
29575;DHT22;16507;51.046;6.406;2022-12-11T08:28:31;-0.40;99.90
29575;DHT22;16507;51.046;6.406;2022-12-11T08:30:57;-0.10;99.90
29575;DHT22;16507;51.046;6.406;2022-12-11T08:33:23;-0.40;99.90
29575;DHT22;16507;51.046;6.406;2022-12-11T08:35:49;-0.20;99.90
29575;DHT22;16507;51.046;6.406;2022-12-11T08:38:14;-0.30;99.90
29575;DHT22;16507;51.046;6.406;2022-12-11T08:40:40;-0.40;99.90
29575;DHT22;16507;51.046;6.406;2022-12-11T08:43:06;-0.20;99.90
29575;DHT22;16507;51.046;6.406;2022-12-11T08:45:31;-0.40;99.90
29575;DHT22;16507;51.046;6.406;2022-12-11T08:48:00;-0.10;99.90
29575;DHT22;16507;51.046;6.406;2022-12-11T08:50:26;-0.40;99.90
29575;DHT22;16507;51.046;6.406;2022-12-11T08:52:51;-0.10;99.90
29575;DHT22;16507;51.046;6.406;2022-12-11T08:55:18;-0.10;99.90
29575;DHT22;16507;51.046;6.406;2022-12-11T08:57:44;-0.30;99.90
29575;DHT22;16507;51.046;6.406;2022-12-11T09:00:11;-0.30;99.90
29575;DHT22;16507;51.046;6.406;2022-12-11T09:02:37;-0.50;99.90
29575;DHT22;16507;51.046;6.406;2022-12-11T09:05:04;-0.20;99.90
29575;DHT22;16507;51.046;6.406;2022-12-11T09:07:32;-0.50;99.90
29575;DHT22;16507;51.046;6.406;2022-12-11T09:09:58;-0.20;99.90
29575;DHT22;16507;51.046;6.406;2022-12-11T09:12:24;-0.30;99.90
29575;DHT22;16507;51.046;6.406;2022-12-11T09:14:50;-0.40;99.90
29575;DHT22;16507;51.046;6.406;2022-12-11T09:17:16;-0.20;99.90
29575;DHT22;16507;51.046;6.406;2022-12-11T09:19:41;-0.10;99.90
29575;DHT22;16507;51.046;6.406;2022-12-11T09:22:07;-0.10;99.90
29575;DHT22;16507;51.046;6.406;2022-12-11T09:24:36;-0.40;99.90
29575;DHT22;16507;51.046;6.406;2022-12-11T09:27:02;-0.20;99.90
29575;DHT22;16507;51.046;6.406;2022-12-11T09:29:28;0.00;99.90
29575;DHT22;16507;51.046;6.406;2022-12-11T09:31:53;0.00;99.90
29575;DHT22;16507;51.046;6.406;2022-12-11T09:34:19;0.00;99.90
29575;DHT22;16507;51.046;6.406;2022-12-11T09:36:45;-0.10;99.90
29575;DHT22;16507;51.046;6.406;2022-12-11T09:39:12;0.10;99.90
29575;DHT22;16507;51.046;6.406;2022-12-11T09:45:03;0.00;99.90
29575;DHT22;16507;51.046;6.406;2022-12-11T09:47:41;0.00;99.90
29575;DHT22;16507;51.046;6.406;2022-12-11T09:55:22;0.10;99.90
29575;DHT22;16507;51.046;6.406;2022-12-11T10:00:56;0.00;99.90
29575;DHT22;16507;51.046;6.406;2022-12-11T10:06:30;0.20;99.90
29575;DHT22;16507;51.046;6.406;2022-12-11T10:09:18;0.00;99.90
29575;DHT22;16507;51.046;6.406;2022-12-11T10:17:15;0.20;99.90
29575;DHT22;16507;51.046;6.406;2022-12-11T10:19:43;0.30;99.90
29575;DHT22;16507;51.046;6.406;2022-12-11T10:22:18;0.20;99.90
29575;DHT22;16507;51.046;6.406;2022-12-11T10:24:56;0.10;99.90
29575;DHT22;16507;51.046;6.406;2022-12-11T10:27:31;0.30;99.90
29575;DHT22;16507;51.046;6.406;2022-12-11T10:30:18;0.20;99.90
29575;DHT22;16507;51.046;6.406;2022-12-11T10:35:40;0.30;99.90
29575;DHT22;16507;51.046;6.406;2022-12-11T10:40:53;0.20;99.90
29575;DHT22;16507;51.046;6.406;2022-12-11T10:43:19;0.30;99.90
29575;DHT22;16507;51.046;6.406;2022-12-11T10:45:53;0.30;99.90
29575;DHT22;16507;51.046;6.406;2022-12-11T10:48:19;0.30;99.90
29575;DHT22;16507;51.046;6.406;2022-12-11T10:50:55;0.50;99.90
29575;DHT22;16507;51.046;6.406;2022-12-11T10:53:22;0.40;99.90
29575;DHT22;16507;51.046;6.406;2022-12-11T10:55:48;0.50;99.90
29575;DHT22;16507;51.046;6.406;2022-12-11T10:58:21;0.30;99.90
29575;DHT22;16507;51.046;6.406;2022-12-11T11:01:13;0.40;99.90
29575;DHT22;16507;51.046;6.406;2022-12-11T11:04:03;0.40;99.90
29575;DHT22;16507;51.046;6.406;2022-12-11T11:06:30;0.30;99.90
29575;DHT22;16507;51.046;6.406;2022-12-11T11:08:58;0.40;99.90
29575;DHT22;16507;51.046;6.406;2022-12-11T11:11:29;0.50;99.90
29575;DHT22;16507;51.046;6.406;2022-12-11T11:16:30;0.50;99.90
29575;DHT22;16507;51.046;6.406;2022-12-11T11:18:56;0.60;99.90
29575;DHT22;16507;51.046;6.406;2022-12-11T11:21:24;0.60;99.90
29575;DHT22;16507;51.046;6.406;2022-12-11T11:23:51;0.60;99.90
29575;DHT22;16507;51.046;6.406;2022-12-11T11:26:18;0.80;99.90
29575;DHT22;16507;51.046;6.406;2022-12-11T11:28:53;0.70;99.90
29575;DHT22;16507;51.046;6.406;2022-12-11T11:31:21;0.70;99.90
29575;DHT22;16507;51.046;6.406;2022-12-11T11:33:58;0.80;99.90
29575;DHT22;16507;51.046;6.406;2022-12-11T11:36:30;0.70;99.90
29575;DHT22;16507;51.046;6.406;2022-12-11T11:39:19;0.90;99.90
29575;DHT22;16507;51.046;6.406;2022-12-11T11:42:03;0.80;99.90
29575;DHT22;16507;51.046;6.406;2022-12-11T11:44:41;0.90;99.90
29575;DHT22;16507;51.046;6.406;2022-12-11T11:47:22;1.10;99.90
29575;DHT22;16507;51.046;6.406;2022-12-11T11:50:07;1.10;99.90
29575;DHT22;16507;51.046;6.406;2022-12-11T11:55:37;1.30;99.90
29575;DHT22;16507;51.046;6.406;2022-12-11T11:58:17;1.40;99.90
29575;DHT22;16507;51.046;6.406;2022-12-11T12:00:47;1.30;99.90
29575;DHT22;16507;51.046;6.406;2022-12-11T12:03:18;1.40;99.90
29575;DHT22;16507;51.046;6.406;2022-12-11T12:06:05;1.50;99.90
29575;DHT22;16507;51.046;6.406;2022-12-11T12:11:39;1.80;99.90
29575;DHT22;16507;51.046;6.406;2022-12-11T12:19:49;2.60;99.90
29575;DHT22;16507;51.046;6.406;2022-12-11T12:27:59;2.00;99.90
29575;DHT22;16507;51.046;6.406;2022-12-11T12:30:44;1.80;99.90
29575;DHT22;16507;51.046;6.406;2022-12-11T12:33:29;1.60;99.90
29575;DHT22;16507;51.046;6.406;2022-12-11T12:41:21;1.40;99.90
29575;DHT22;16507;51.046;6.406;2022-12-11T12:48:59;1.40;99.90
29575;DHT22;16507;51.046;6.406;2022-12-11T12:51:26;1.50;99.90
29575;DHT22;16507;51.046;6.406;2022-12-11T12:54:00;1.50;99.90
29575;DHT22;16507;51.046;6.406;2022-12-11T12:56:28;1.40;99.90
29575;DHT22;16507;51.046;6.406;2022-12-11T12:58:56;1.40;99.90
29575;DHT22;16507;51.046;6.406;2022-12-11T13:01:24;1.50;99.90
29575;DHT22;16507;51.046;6.406;2022-12-11T13:04:06;1.40;99.90
29575;DHT22;16507;51.046;6.406;2022-12-11T13:06:36;1.40;99.90
29575;DHT22;16507;51.046;6.406;2022-12-11T13:09:18;1.40;99.90
29575;DHT22;16507;51.046;6.406;2022-12-11T13:11:45;1.40;99.90
29575;DHT22;16507;51.046;6.406;2022-12-11T13:16:47;1.50;99.90
29575;DHT22;16507;51.046;6.406;2022-12-11T13:19:26;1.40;99.90
29575;DHT22;16507;51.046;6.406;2022-12-11T13:26:48;1.40;99.90
29575;DHT22;16507;51.046;6.406;2022-12-11T13:29:46;1.50;99.90
29575;DHT22;16507;51.046;6.406;2022-12-11T13:32:22;1.60;99.90
29575;DHT22;16507;51.046;6.406;2022-12-11T13:34:57;1.60;99.90
29575;DHT22;16507;51.046;6.406;2022-12-11T13:37:36;1.50;99.90
29575;DHT22;16507;51.046;6.406;2022-12-11T13:40:07;1.40;99.90
29575;DHT22;16507;51.046;6.406;2022-12-11T13:42:37;1.30;99.90
29575;DHT22;16507;51.046;6.406;2022-12-11T13:45:06;1.40;99.90
29575;DHT22;16507;51.046;6.406;2022-12-11T13:47:34;1.40;99.90
29575;DHT22;16507;51.046;6.406;2022-12-11T13:50:35;1.50;99.90
29575;DHT22;16507;51.046;6.406;2022-12-11T13:53:02;1.50;99.90
29575;DHT22;16507;51.046;6.406;2022-12-11T13:55:33;1.50;99.90
29575;DHT22;16507;51.046;6.406;2022-12-11T13:57:59;1.50;99.90
29575;DHT22;16507;51.046;6.406;2022-12-11T14:00:30;1.50;99.90
29575;DHT22;16507;51.046;6.406;2022-12-11T14:02:59;1.50;99.90
29575;DHT22;16507;51.046;6.406;2022-12-11T14:05:26;1.50;99.90
29575;DHT22;16507;51.046;6.406;2022-12-11T14:07:55;1.40;99.90
29575;DHT22;16507;51.046;6.406;2022-12-11T14:10:23;1.40;99.90
29575;DHT22;16507;51.046;6.406;2022-12-11T14:12:50;1.30;99.90
29575;DHT22;16507;51.046;6.406;2022-12-11T14:15:17;1.20;99.90
29575;DHT22;16507;51.046;6.406;2022-12-11T14:17:43;1.10;99.90
29575;DHT22;16507;51.046;6.406;2022-12-11T14:20:20;1.00;99.90
29575;DHT22;16507;51.046;6.406;2022-12-11T14:22:47;1.00;99.90
29575;DHT22;16507;51.046;6.406;2022-12-11T14:25:24;0.90;99.90
29575;DHT22;16507;51.046;6.406;2022-12-11T14:27:53;0.80;99.90
29575;DHT22;16507;51.046;6.406;2022-12-11T14:30:30;0.70;99.90
29575;DHT22;16507;51.046;6.406;2022-12-11T14:32:59;0.80;99.90
29575;DHT22;16507;51.046;6.406;2022-12-11T14:35:29;0.70;99.90
29575;DHT22;16507;51.046;6.406;2022-12-11T14:37:59;0.70;99.90
29575;DHT22;16507;51.046;6.406;2022-12-11T14:40:30;0.60;99.90
29575;DHT22;16507;51.046;6.406;2022-12-11T14:43:06;0.60;99.90
29575;DHT22;16507;51.046;6.406;2022-12-11T14:45:35;0.60;99.90
29575;DHT22;16507;51.046;6.406;2022-12-11T14:48:06;0.60;99.90
29575;DHT22;16507;51.046;6.406;2022-12-11T14:50:38;0.60;99.90
29575;DHT22;16507;51.046;6.406;2022-12-11T14:53:12;0.70;99.90
29575;DHT22;16507;51.046;6.406;2022-12-11T14:55:39;0.70;99.90
29575;DHT22;16507;51.046;6.406;2022-12-11T14:58:20;0.70;99.90
29575;DHT22;16507;51.046;6.406;2022-12-11T15:01:00;0.70;99.90
29575;DHT22;16507;51.046;6.406;2022-12-11T15:03:35;0.70;99.90
29575;DHT22;16507;51.046;6.406;2022-12-11T15:06:17;0.70;99.90
29575;DHT22;16507;51.046;6.406;2022-12-11T15:08:45;0.70;99.90
29575;DHT22;16507;51.046;6.406;2022-12-11T15:11:13;0.60;99.90
29575;DHT22;16507;51.046;6.406;2022-12-11T15:16:18;0.60;99.90
29575;DHT22;16507;51.046;6.406;2022-12-11T15:18:48;0.60;99.90
29575;DHT22;16507;51.046;6.406;2022-12-11T15:21:15;0.70;99.90
29575;DHT22;16507;51.046;6.406;2022-12-11T15:26:09;0.70;99.90
29575;DHT22;16507;51.046;6.406;2022-12-11T15:28:36;0.60;99.90
29575;DHT22;16507;51.046;6.406;2022-12-11T15:31:23;0.60;99.90
29575;DHT22;16507;51.046;6.406;2022-12-11T15:33:49;0.40;99.90
29575;DHT22;16507;51.046;6.406;2022-12-11T15:38:56;0.30;99.90
29575;DHT22;16507;51.046;6.406;2022-12-11T15:41:22;0.30;99.90
29575;DHT22;16507;51.046;6.406;2022-12-11T15:43:50;0.40;99.90
29575;DHT22;16507;51.046;6.406;2022-12-11T15:46:17;0.20;99.90
29575;DHT22;16507;51.046;6.406;2022-12-11T15:48:42;0.20;99.90
29575;DHT22;16507;51.046;6.406;2022-12-11T15:51:09;0.20;99.90
29575;DHT22;16507;51.046;6.406;2022-12-11T15:53:35;0.20;99.90
29575;DHT22;16507;51.046;6.406;2022-12-11T15:56:01;0.20;99.90
29575;DHT22;16507;51.046;6.406;2022-12-11T15:58:27;0.20;99.90
29575;DHT22;16507;51.046;6.406;2022-12-11T16:00:53;0.10;99.90
29575;DHT22;16507;51.046;6.406;2022-12-11T16:03:21;0.20;99.90
29575;DHT22;16507;51.046;6.406;2022-12-11T16:05:49;0.20;99.90
29575;DHT22;16507;51.046;6.406;2022-12-11T16:08:18;0.10;99.90
29575;DHT22;16507;51.046;6.406;2022-12-11T16:10:46;0.00;99.90
29575;DHT22;16507;51.046;6.406;2022-12-11T16:13:13;0.10;99.90
29575;DHT22;16507;51.046;6.406;2022-12-11T16:15:42;0.00;99.90
29575;DHT22;16507;51.046;6.406;2022-12-11T16:18:11;0.00;99.90
29575;DHT22;16507;51.046;6.406;2022-12-11T16:20:38;-0.10;99.90
29575;DHT22;16507;51.046;6.406;2022-12-11T16:23:05;-0.20;99.90
29575;DHT22;16507;51.046;6.406;2022-12-11T16:25:30;-0.10;99.90
29575;DHT22;16507;51.046;6.406;2022-12-11T16:27:58;-0.30;99.90
29575;DHT22;16507;51.046;6.406;2022-12-11T16:30:24;-0.40;99.90
29575;DHT22;16507;51.046;6.406;2022-12-11T16:32:50;-0.30;99.90
29575;DHT22;16507;51.046;6.406;2022-12-11T16:35:16;-0.40;99.90
29575;DHT22;16507;51.046;6.406;2022-12-11T16:37:43;-0.40;99.90
29575;DHT22;16507;51.046;6.406;2022-12-11T16:40:09;-0.50;99.90
29575;DHT22;16507;51.046;6.406;2022-12-11T16:42:37;-0.60;99.90
29575;DHT22;16507;51.046;6.406;2022-12-11T16:45:06;-0.50;99.90
29575;DHT22;16507;51.046;6.406;2022-12-11T16:47:33;-0.70;99.90
29575;DHT22;16507;51.046;6.406;2022-12-11T16:49:58;-0.70;99.90
29575;DHT22;16507;51.046;6.406;2022-12-11T16:52:24;-0.60;99.90
29575;DHT22;16507;51.046;6.406;2022-12-11T16:54:50;-0.60;99.90
29575;DHT22;16507;51.046;6.406;2022-12-11T16:57:15;-0.60;99.90
29575;DHT22;16507;51.046;6.406;2022-12-11T16:59:41;-0.50;99.90
29575;DHT22;16507;51.046;6.406;2022-12-11T17:02:09;-0.30;99.90
29575;DHT22;16507;51.046;6.406;2022-12-11T17:04:37;-0.40;99.90
29575;DHT22;16507;51.046;6.406;2022-12-11T17:07:03;-0.30;99.90
29575;DHT22;16507;51.046;6.406;2022-12-11T17:09:29;-0.20;99.90
29575;DHT22;16507;51.046;6.406;2022-12-11T17:11:54;0.00;99.90
29575;DHT22;16507;51.046;6.406;2022-12-11T17:14:20;0.00;99.90
29575;DHT22;16507;51.046;6.406;2022-12-11T17:16:46;-0.10;99.90
29575;DHT22;16507;51.046;6.406;2022-12-11T17:19:12;0.00;99.90
29575;DHT22;16507;51.046;6.406;2022-12-11T17:21:38;-0.10;99.90